Detall de PIREP

Printer-friendly versionPDF version

[2016/12/18 16:53:00]
Flight IATA:CT0001
Pilot Number:012
Company ICAO:CAT
Aircraft Type:B463/A
PAX:0
Aircraft Registration:CARGO
Departing Airport: LEGE
Destination Airport: LEAL
Alternate Airport:LEIB
Online: VATSIM
Route:BGR UN855 POS UL129 LULAK UM603 GERVU
Flight Level:F290
No Slew and time accel
No pause
Crash detect
Detect pilot in Cockpit between each 30 and 45 minutes
16:53 Zero fuel Weight: 78401 Lbs, Fuel Weight: 17905 Lbs
16:53 VATSIM:LEGE 181630Z 05003KT 020V080 9999 FEW030 08/05 Q1029
16:53 VATSIM:LEAL 181630Z 04022KT 9000 RA FEW006 BKN060 13/10 Q1020 TEMPO 3000 TSRA FEW015CB
16:54 Parking Brakes off
16:58 Take-off
16:58 Take off Weight: 95910 Lbs
16:58 Wind: 051º @ 003 Knots Heading: 193º
16:58 POS N41º 53´ 56´´ E002º 45´ 35´´
16:58 Flaps:2 at 147 Knots
16:58 Gear Up: 149 Knots
16:58 Flaps:1 at 161 Knots
16:59 Flaps:0 at 172 Knots
17:11 TOC
17:11 Fuel Weight: 15357 Lb
17:13 Wind:090º@023 Knots Heading: 148º Ground Speed: 412 Knots Altitude 29452 ft
17:28 Wind:115º@027 Knots Heading: 207º Ground Speed: 414 Knots Altitude 29291 ft
17:43 Wind:096º@039 Knots Heading: 245º Ground Speed: 443 Knots Altitude 29196 ft
17:43 TOD
17:43 Fuel Weight: 12335 Lb
17:57 Flaps:1 at 198 Knots
17:58 Wind:090º@018 Knots Heading: 267º Ground Speed: 221 Knots Altitude 4524 ft
18:02 Gear Down: 182 Knots
18:02 Flaps:2 at 172 Knots
18:02 Flaps:3 at 131 Knots
18:03 Flaps:4 at 133 Knots
18:07 TouchDown:Rate -207 ft/min Speed: 132 Knots
18:08 VATSIM:LEAL 181730Z 04017G29KT 9999 FEW010 SCT060 13/10 Q1019 TEMPO 3000 TSRA FEW015CB
18:08 Land
18:08 Wind:040º@024 Knots
18:08 Heading: 097º
18:08 Flight Duration: 01:10
18:08 Landing Weight: 89489 Lbs
18:08 POS N38º 16´ 51´´ W000º 32´ 56´´
18:10 Parking brakes on
18:10 Block to Block Duration: 01:16
18:10 Final Fuel: 10912 Lbls
18:10 Spent Fuel: 6992 Lbls
18:10 Flight Length: 401 NM
18:10 TOD Land Length: 111 NM

Exportar CSV

Powered by Drupal - Modified by Danger4k